createdAt,value
2019-04-30T00:01:59.394Z,10.57
2019-04-30T00:04:40.413Z,10.64
2019-04-30T00:07:15.554Z,10.58
2019-04-30T00:09:53.916Z,10.60
2019-04-30T00:12:30.941Z,10.54
2019-04-30T00:15:11.106Z,10.58
2019-04-30T00:17:52.836Z,10.59
2019-04-30T00:20:34.216Z,10.57
2019-04-30T00:23:08.782Z,10.55
2019-04-30T00:25:41.352Z,10.56
2019-04-30T00:28:15.538Z,10.55
2019-04-30T00:30:49.467Z,10.55
2019-04-30T00:33:23.174Z,10.56
2019-04-30T00:35:58.169Z,10.52
2019-04-30T00:38:34.282Z,10.52
2019-04-30T00:41:10.827Z,10.52
2019-04-30T00:43:49.271Z,10.57
2019-04-30T00:46:27.322Z,10.53
2019-04-30T00:49:09.278Z,10.48
2019-04-30T00:51:49.870Z,10.54
2019-04-30T00:54:29.353Z,10.50
2019-04-30T00:57:07.650Z,10.49
2019-04-30T00:59:46.555Z,10.48
2019-04-30T01:02:35.856Z,10.45
2019-04-30T01:05:11.564Z,10.46
2019-04-30T01:07:48.708Z,10.46
2019-04-30T01:10:28.214Z,10.46
2019-04-30T01:13:08.066Z,10.46
2019-04-30T01:15:44.033Z,10.45
2019-04-30T01:18:23.610Z,10.52
2019-04-30T01:21:02.919Z,10.50
2019-04-30T01:23:48.209Z,10.53
2019-04-30T01:26:27.735Z,10.49
2019-04-30T01:29:05.338Z,10.55
2019-04-30T01:31:40.727Z,10.60
2019-04-30T01:34:14.163Z,10.64
2019-04-30T01:36:48.429Z,10.62
2019-04-30T01:39:29.992Z,10.59
2019-04-30T01:42:07.949Z,10.58
2019-04-30T01:44:50.510Z,10.58
2019-04-30T01:47:27.662Z,10.59
2019-04-30T01:50:04.886Z,10.56
2019-04-30T01:52:44.174Z,10.56
2019-04-30T01:55:19.624Z,10.65
2019-04-30T01:58:10.830Z,10.65
2019-04-30T02:00:59.406Z,10.61
2019-04-30T02:03:32.053Z,10.61
2019-04-30T02:06:06.174Z,10.64
2019-04-30T02:08:39.315Z,10.63
2019-04-30T02:11:12.611Z,10.68
2019-04-30T02:13:46.753Z,10.63
2019-04-30T02:16:21.134Z,10.60
2019-04-30T02:18:56.032Z,10.65
2019-04-30T02:21:31.816Z,10.60
2019-04-30T02:24:05.814Z,10.56
2019-04-30T02:26:38.612Z,10.55
2019-04-30T02:29:11.579Z,10.54
2019-04-30T02:31:44.427Z,10.54
2019-04-30T02:34:30.231Z,10.53
2019-04-30T02:37:10.702Z,10.58
2019-04-30T02:39:43.199Z,10.57
2019-04-30T02:42:20.068Z,10.58
2019-04-30T02:44:54.343Z,10.66
2019-04-30T02:47:30.397Z,10.61
2019-04-30T02:50:15.278Z,10.60
2019-04-30T02:52:51.936Z,10.60
2019-04-30T02:55:45.013Z,10.65
2019-04-30T02:58:20.827Z,10.58
2019-04-30T03:00:53.596Z,10.57
2019-04-30T03:03:26.640Z,10.52
2019-04-30T03:05:59.626Z,10.56
2019-04-30T03:08:32.371Z,10.54
2019-04-30T03:11:05.212Z,10.51
2019-04-30T03:13:40.023Z,10.47
2019-04-30T03:16:24.655Z,10.44
2019-04-30T03:19:10.783Z,10.41
2019-04-30T03:21:50.271Z,10.38
2019-04-30T03:24:23.207Z,10.36
2019-04-30T03:26:55.615Z,10.34
2019-04-30T03:29:30.208Z,10.37
2019-04-30T03:32:03.773Z,10.37
2019-04-30T03:34:36.423Z,10.38
2019-04-30T03:37:11.531Z,10.38
2019-04-30T03:39:44.911Z,10.37
2019-04-30T03:42:19.913Z,10.36
2019-04-30T03:44:52.700Z,10.34
2019-04-30T03:47:25.434Z,10.31
2019-04-30T03:50:00.055Z,10.37
2019-04-30T03:52:32.690Z,10.34
2019-04-30T03:55:06.188Z,10.32
2019-04-30T03:57:39.925Z,10.28
2019-04-30T04:00:29.981Z,10.26
2019-04-30T04:03:02.673Z,10.24
2019-04-30T04:05:43.003Z,10.20
2019-04-30T04:08:24.577Z,10.19
2019-04-30T04:11:04.936Z,10.17
2019-04-30T04:13:39.916Z,10.20
2019-04-30T04:16:12.598Z,10.21
2019-04-30T04:18:45.590Z,10.20
2019-04-30T04:21:20.501Z,10.27
2019-04-30T04:23:53.129Z,10.26
2019-04-30T04:26:26.167Z,10.26
2019-04-30T04:28:59.424Z,10.27
2019-04-30T04:31:32.391Z,10.26
2019-04-30T04:34:05.531Z,10.26
2019-04-30T04:36:39.965Z,10.31
2019-04-30T04:39:15.759Z,10.36
2019-04-30T04:41:50.323Z,10.29
2019-04-30T04:44:23.160Z,10.25
2019-04-30T04:46:56.397Z,10.21
2019-04-30T04:49:31.416Z,10.23
2019-04-30T04:52:04.160Z,10.25
2019-04-30T04:54:36.671Z,10.23
2019-04-30T04:57:17.234Z,10.24
2019-04-30T04:59:50.751Z,10.22
2019-04-30T05:02:39.514Z,10.23
2019-04-30T05:05:14.012Z,10.24
2019-04-30T05:07:48.495Z,10.24
2019-04-30T05:10:22.034Z,10.26
2019-04-30T05:12:54.694Z,10.27
2019-04-30T05:15:29.474Z,10.30
2019-04-30T05:18:02.575Z,10.31
2019-04-30T05:20:35.051Z,10.32
2019-04-30T05:23:09.379Z,10.35
2019-04-30T05:25:42.031Z,10.35
2019-04-30T05:28:18.972Z,10.41
2019-04-30T05:30:52.700Z,10.41
2019-04-30T05:33:25.963Z,10.43
2019-04-30T05:35:59.396Z,10.43
2019-04-30T05:38:32.093Z,10.43
2019-04-30T05:41:05.085Z,10.47
2019-04-30T05:43:38.724Z,10.49
2019-04-30T05:46:13.964Z,10.52
2019-04-30T05:48:47.125Z,10.55
2019-04-30T05:51:21.294Z,10.58
2019-04-30T05:53:53.848Z,10.61
2019-04-30T05:56:30.163Z,10.64
2019-04-30T05:59:04.364Z,10.72
2019-04-30T06:01:39.495Z,10.83
2019-04-30T06:04:12.620Z,10.91
2019-04-30T06:06:45.325Z,10.98
2019-04-30T06:09:34.084Z,11.04
2019-04-30T06:12:21.228Z,11.16
2019-04-30T06:15:19.367Z,11.29
2019-04-30T06:18:00.324Z,11.42
2019-04-30T06:20:40.126Z,11.46
2019-04-30T06:23:12.765Z,11.45
2019-04-30T06:25:57.269Z,11.39
2019-04-30T06:28:35.423Z,11.28
2019-04-30T06:31:12.753Z,11.24
2019-04-30T06:33:48.634Z,11.31
2019-04-30T06:36:21.903Z,11.33
2019-04-30T06:38:55.922Z,11.31
2019-04-30T06:41:29.641Z,11.21
2019-04-30T06:44:02.529Z,11.20
2019-04-30T06:46:35.783Z,11.19
2019-04-30T06:49:09.879Z,11.24
2019-04-30T06:51:42.277Z,11.24
2019-04-30T06:54:19.045Z,11.19
2019-04-30T06:56:53.435Z,11.21
2019-04-30T06:59:25.970Z,11.17
2019-04-30T07:01:59.492Z,11.15
2019-04-30T07:04:34.015Z,11.19
2019-04-30T07:07:06.793Z,11.22
2019-04-30T07:09:56.791Z,11.34
2019-04-30T07:12:38.979Z,11.48
2019-04-30T07:15:14.843Z,11.61
2019-04-30T07:17:49.150Z,11.71
2019-04-30T07:20:23.544Z,11.80
2019-04-30T07:23:02.336Z,12.32
2019-04-30T07:25:36.339Z,13.25
2019-04-30T07:28:09.188Z,13.93
2019-04-30T07:30:45.269Z,14.54
2019-04-30T07:33:20.954Z,14.95
2019-04-30T07:35:54.954Z,15.18
2019-04-30T07:38:30.114Z,15.60
2019-04-30T07:41:02.563Z,15.60
2019-04-30T07:43:39.058Z,15.08
2019-04-30T07:46:12.657Z,14.60
2019-04-30T07:48:45.206Z,14.97
2019-04-30T07:51:21.494Z,15.27
2019-04-30T07:53:55.417Z,15.64
2019-04-30T07:56:34.952Z,16.06
2019-04-30T07:59:11.384Z,16.26
2019-04-30T08:02:00.263Z,16.25
2019-04-30T08:04:41.463Z,16.14
2019-04-30T08:07:16.141Z,16.15
2019-04-30T08:09:49.437Z,16.47
2019-04-30T08:12:30.434Z,16.82
2019-04-30T08:15:10.403Z,16.76
2019-04-30T08:18:00.061Z,16.21
2019-04-30T08:20:39.332Z,16.43
2019-04-30T08:23:20.175Z,16.64
2019-04-30T08:26:04.567Z,17.00
2019-04-30T08:28:38.814Z,16.87
2019-04-30T08:31:15.600Z,16.78
2019-04-30T08:33:49.040Z,17.03
2019-04-30T08:36:22.213Z,16.80
2019-04-30T08:38:56.245Z,16.82
2019-04-30T08:41:31.170Z,16.91
2019-04-30T08:44:05.308Z,17.27
2019-04-30T08:46:39.883Z,17.63
2019-04-30T08:49:18.900Z,17.71
2019-04-30T08:51:53.010Z,17.86
2019-04-30T08:54:26.344Z,17.85
2019-04-30T08:57:00.370Z,17.75
2019-04-30T08:59:33.694Z,17.80
2019-04-30T09:02:16.052Z,17.57
2019-04-30T09:04:58.812Z,17.36
2019-04-30T09:07:33.224Z,17.23
2019-04-30T09:10:06.514Z,17.10
2019-04-30T09:12:40.165Z,17.41
2019-04-30T09:15:15.639Z,17.39
2019-04-30T09:18:00.675Z,17.35
2019-04-30T09:20:39.098Z,17.30
2019-04-30T09:23:14.339Z,17.26
2019-04-30T09:25:49.668Z,17.11
2019-04-30T09:28:23.993Z,17.18
2019-04-30T09:31:01.178Z,17.48
2019-04-30T09:33:34.816Z,17.53
2019-04-30T09:36:09.523Z,17.69
2019-04-30T09:38:43.672Z,17.65
2019-04-30T09:41:16.936Z,17.72
2019-04-30T09:43:52.011Z,17.76
2019-04-30T09:46:27.166Z,17.74
2019-04-30T09:49:02.647Z,17.61
2019-04-30T09:51:39.423Z,17.61
2019-04-30T09:54:13.910Z,18.18
2019-04-30T09:56:49.610Z,18.57
2019-04-30T09:59:26.165Z,19.13
2019-04-30T10:01:59.706Z,19.16
2019-04-30T10:04:34.228Z,19.67
2019-04-30T10:07:09.638Z,20.04
2019-04-30T10:09:42.994Z,20.52
2019-04-30T10:12:15.812Z,20.93
2019-04-30T10:14:49.443Z,20.82
2019-04-30T10:17:41.549Z,20.32
2019-04-30T10:20:41.418Z,19.92
2019-04-30T10:23:14.579Z,20.03
2019-04-30T10:25:47.255Z,20.32
2019-04-30T10:28:21.266Z,20.31
2019-04-30T10:30:54.491Z,20.21
2019-04-30T10:33:28.719Z,20.19
2019-04-30T10:36:03.192Z,19.91
2019-04-30T10:38:36.592Z,20.04
2019-04-30T10:41:11.174Z,20.05
2019-04-30T10:43:45.853Z,20.14
2019-04-30T10:46:20.405Z,20.38
2019-04-30T10:48:56.741Z,20.52
2019-04-30T10:51:29.405Z,20.73
2019-04-30T10:54:01.935Z,20.96
2019-04-30T10:56:36.078Z,21.38
2019-04-30T10:59:12.737Z,21.84
2019-04-30T11:01:45.507Z,21.67
2019-04-30T11:04:20.691Z,21.19
2019-04-30T11:06:55.950Z,20.92
2019-04-30T11:09:31.057Z,20.87
2019-04-30T11:12:05.630Z,21.00
2019-04-30T11:14:38.109Z,20.78
2019-04-30T11:17:13.771Z,20.73
2019-04-30T11:19:49.295Z,20.84
2019-04-30T11:22:23.606Z,21.02
2019-04-30T11:25:01.785Z,21.02
2019-04-30T11:27:37.199Z,20.90
2019-04-30T11:30:23.402Z,20.57
2019-04-30T11:33:03.400Z,20.56
2019-04-30T11:35:39.359Z,20.36
2019-04-30T11:38:12.492Z,20.51
2019-04-30T11:40:48.636Z,20.36
2019-04-30T11:43:21.266Z,20.39
2019-04-30T11:46:40.710Z,20.53
2019-04-30T11:49:13.466Z,20.73
2019-04-30T11:51:46.203Z,20.91
2019-04-30T11:54:19.426Z,20.47
2019-04-30T11:56:52.895Z,20.20
2019-04-30T11:59:29.775Z,20.31
2019-04-30T12:02:15.266Z,20.62
2019-04-30T12:04:49.568Z,20.71
2019-04-30T12:07:41.835Z,20.96
2019-04-30T12:10:30.136Z,21.18
2019-04-30T12:13:23.499Z,21.43
2019-04-30T12:15:58.926Z,21.30
2019-04-30T12:18:34.799Z,21.37
2019-04-30T12:21:08.978Z,21.55
2019-04-30T12:23:42.904Z,21.69
2019-04-30T12:26:16.582Z,21.60
2019-04-30T12:28:50.463Z,21.68
2019-04-30T12:31:24.898Z,21.78
2019-04-30T12:33:58.924Z,21.61
2019-04-30T12:36:33.868Z,21.83
2019-04-30T12:39:12.048Z,22.52
2019-04-30T12:41:45.603Z,22.77
2019-04-30T12:44:18.965Z,22.27
2019-04-30T12:46:52.844Z,22.26
2019-04-30T12:49:53.357Z,21.75
2019-04-30T12:52:46.231Z,21.97
2019-04-30T12:59:01.209Z,21.99
2019-04-30T13:01:34.721Z,21.95
2019-04-30T13:04:15.794Z,22.22
2019-04-30T13:06:53.572Z,22.29
2019-04-30T13:09:33.647Z,22.55
2019-04-30T13:12:10.259Z,22.97
2019-04-30T13:14:51.466Z,22.61
2019-04-30T13:17:33.326Z,21.84
2019-04-30T13:20:18.540Z,21.59
2019-04-30T13:22:54.779Z,21.45
2019-04-30T13:25:34.810Z,21.81
2019-04-30T13:28:15.293Z,22.28
2019-04-30T13:30:49.425Z,22.48
2019-04-30T13:33:39.594Z,22.61
2019-04-30T13:36:22.110Z,23.04
2019-04-30T13:39:10.872Z,23.19
2019-04-30T13:42:01.471Z,23.13
2019-04-30T13:44:39.379Z,23.10
2019-04-30T13:47:19.076Z,23.18
2019-04-30T13:49:54.625Z,23.69
2019-04-30T13:52:30.971Z,24.23
2019-04-30T13:55:10.977Z,24.66
2019-04-30T13:57:48.360Z,24.64
2019-04-30T14:00:29.819Z,25.20
2019-04-30T14:03:23.548Z,24.43
2019-04-30T14:06:01.302Z,23.18
2019-04-30T14:08:48.802Z,22.51
2019-04-30T14:11:49.528Z,22.05
2019-04-30T14:14:29.596Z,22.21
2019-04-30T14:17:15.734Z,22.73
2019-04-30T14:19:54.307Z,23.22
2019-04-30T14:22:46.715Z,23.53
2019-04-30T14:25:56.687Z,23.23
2019-04-30T14:28:33.065Z,22.60
2019-04-30T14:31:07.567Z,22.50
2019-04-30T14:33:42.222Z,22.75
2019-04-30T14:36:15.516Z,22.66
2019-04-30T14:38:48.928Z,23.14
2019-04-30T14:41:24.371Z,23.63
2019-04-30T14:44:05.414Z,23.60
2019-04-30T14:46:52.767Z,23.17
2019-04-30T14:49:33.004Z,22.74
2019-04-30T14:52:09.370Z,22.33
2019-04-30T14:54:58.850Z,22.09
2019-04-30T14:57:53.930Z,22.70
2019-04-30T15:00:59.331Z,22.89
2019-04-30T15:03:46.397Z,23.24
2019-04-30T15:06:21.489Z,23.08
2019-04-30T15:08:55.131Z,22.99
2019-04-30T15:11:28.914Z,23.19
2019-04-30T15:14:02.570Z,22.95
2019-04-30T15:16:37.260Z,22.93
2019-04-30T15:19:10.277Z,22.96
2019-04-30T15:21:46.317Z,22.75
2019-04-30T15:24:29.309Z,22.05
2019-04-30T15:27:02.340Z,21.42
2019-04-30T15:29:39.627Z,21.29
2019-04-30T15:32:12.682Z,21.43
2019-04-30T15:34:48.932Z,21.60
2019-04-30T15:37:23.952Z,21.70
2019-04-30T15:39:59.255Z,21.82
2019-04-30T15:42:33.815Z,21.86
2019-04-30T15:45:09.260Z,21.65
2019-04-30T15:47:42.447Z,21.11
2019-04-30T15:50:15.254Z,20.89
2019-04-30T15:52:49.747Z,20.67
2019-04-30T15:55:31.601Z,20.48
2019-04-30T15:58:16.688Z,20.48
2019-04-30T16:00:50.846Z,20.39
2019-04-30T16:03:28.995Z,20.11
2019-04-30T16:06:04.786Z,19.85
2019-04-30T16:08:48.431Z,19.61
2019-04-30T16:11:36.373Z,19.60
2019-04-30T16:14:29.837Z,19.84
2019-04-30T16:17:11.229Z,19.65
2019-04-30T16:19:46.198Z,19.51
2019-04-30T16:22:20.774Z,19.30
2019-04-30T16:24:54.704Z,19.49
2019-04-30T16:27:27.974Z,19.64
2019-04-30T16:30:05.677Z,19.57
2019-04-30T16:32:39.566Z,19.25
2019-04-30T16:35:13.695Z,18.99
2019-04-30T16:37:49.640Z,18.93
2019-04-30T16:40:24.264Z,18.79
2019-04-30T16:42:57.789Z,18.64
2019-04-30T16:45:31.286Z,18.48
2019-04-30T16:48:04.576Z,18.40
2019-04-30T16:50:37.213Z,18.32
2019-04-30T16:53:10.551Z,18.23
2019-04-30T16:55:43.669Z,18.25
2019-04-30T16:58:19.640Z,18.17
2019-04-30T17:00:55.103Z,18.04
2019-04-30T17:03:39.210Z,17.83
2019-04-30T17:06:17.318Z,17.76
2019-04-30T17:09:03.207Z,17.73
2019-04-30T17:11:54.623Z,17.52
2019-04-30T17:14:41.943Z,17.30
2019-04-30T17:17:15.681Z,17.03
2019-04-30T17:19:50.027Z,16.92
2019-04-30T17:22:22.723Z,16.90
2019-04-30T17:24:55.291Z,16.84
2019-04-30T17:27:29.411Z,16.76
2019-04-30T17:30:05.120Z,16.66
2019-04-30T17:32:39.456Z,16.56
2019-04-30T17:35:15.494Z,16.39
2019-04-30T17:37:48.456Z,16.25
2019-04-30T17:40:22.679Z,16.18
2019-04-30T17:42:57.646Z,16.08
2019-04-30T17:45:31.309Z,16.02
2019-04-30T17:48:04.895Z,15.98
2019-04-30T17:50:39.707Z,15.91
2019-04-30T17:53:18.959Z,15.83
2019-04-30T17:55:59.033Z,15.78
2019-04-30T17:58:34.843Z,15.69
2019-04-30T18:01:10.641Z,15.60
2019-04-30T18:03:45.219Z,15.53
2019-04-30T18:06:18.987Z,15.44
2019-04-30T18:08:52.454Z,15.34
2019-04-30T18:11:25.379Z,15.23
2019-04-30T18:14:00.020Z,15.14
2019-04-30T18:16:35.840Z,15.04
2019-04-30T18:19:36.125Z,14.90
2019-04-30T18:22:29.366Z,14.84
2019-04-30T18:25:14.022Z,14.69
2019-04-30T18:27:53.569Z,14.54
2019-04-30T18:30:33.140Z,14.44
2019-04-30T18:33:09.855Z,14.27
2019-04-30T18:35:43.149Z,14.13
2019-04-30T18:38:17.781Z,13.99
2019-04-30T18:40:55.044Z,13.85
2019-04-30T18:43:29.768Z,13.73
2019-04-30T18:46:05.528Z,13.56
2019-04-30T18:48:41.404Z,13.40
2019-04-30T18:51:30.752Z,13.24
2019-04-30T18:54:10.203Z,13.08
2019-04-30T18:56:43.207Z,12.93
2019-04-30T18:59:17.218Z,12.91
2019-04-30T19:01:51.734Z,12.78
2019-04-30T19:04:28.794Z,12.68
2019-04-30T19:07:21.734Z,12.59
2019-04-30T19:10:06.732Z,12.55
2019-04-30T19:13:08.941Z,12.48
2019-04-30T19:16:21.920Z,12.38
2019-04-30T19:19:06.318Z,12.24
2019-04-30T19:21:40.371Z,12.23
2019-04-30T19:24:15.006Z,12.08
2019-04-30T19:26:50.141Z,11.95
2019-04-30T19:29:24.648Z,11.90
2019-04-30T19:32:00.124Z,11.72
2019-04-30T19:34:35.774Z,11.62
2019-04-30T19:37:09.572Z,11.55
2019-04-30T19:39:45.420Z,11.46
2019-04-30T19:42:25.776Z,11.42
2019-04-30T19:45:12.121Z,11.36
2019-04-30T19:47:46.095Z,11.31
2019-04-30T19:50:19.413Z,11.29
2019-04-30T19:52:58.772Z,11.32
2019-04-30T19:55:35.237Z,11.39
2019-04-30T19:58:46.719Z,11.43
2019-04-30T20:01:41.327Z,11.30
2019-04-30T20:04:18.526Z,11.26
2019-04-30T20:06:56.578Z,11.17
2019-04-30T20:09:37.561Z,11.19
2019-04-30T20:12:13.504Z,11.12
2019-04-30T20:14:49.680Z,11.05
2019-04-30T20:17:24.626Z,11.02
2019-04-30T20:19:58.900Z,10.98
2019-04-30T20:22:35.000Z,10.95
2019-04-30T20:25:10.376Z,10.92
2019-04-30T20:27:43.573Z,10.86
2019-04-30T20:30:19.422Z,10.81
2019-04-30T20:32:55.785Z,10.72
2019-04-30T20:35:31.423Z,10.62
2019-04-30T20:38:10.684Z,10.56
2019-04-30T20:40:59.532Z,10.49
2019-04-30T20:43:35.545Z,10.38
2019-04-30T20:46:08.813Z,10.32
2019-04-30T20:48:42.860Z,10.28
2019-04-30T20:51:19.576Z,10.30
2019-04-30T20:53:55.067Z,10.27
2019-04-30T20:56:33.358Z,10.18
2019-04-30T20:59:13.090Z,10.17
2019-04-30T21:01:46.448Z,10.12
2019-04-30T21:04:21.574Z,10.04
2019-04-30T21:06:55.188Z,9.95
2019-04-30T21:09:33.274Z,9.90
2019-04-30T21:12:05.763Z,9.87
2019-04-30T21:14:40.920Z,9.80
2019-04-30T21:17:16.631Z,9.66
2019-04-30T21:19:51.059Z,9.50
2019-04-30T21:22:25.683Z,9.45
2019-04-30T21:25:00.616Z,9.44
2019-04-30T21:27:35.368Z,9.43
2019-04-30T21:30:11.892Z,9.43
2019-04-30T21:33:09.394Z,9.43
2019-04-30T21:35:58.584Z,9.58
2019-04-30T21:38:33.199Z,9.59
2019-04-30T21:41:09.836Z,9.55
2019-04-30T21:43:45.455Z,9.47
2019-04-30T21:46:29.329Z,9.40
2019-04-30T21:49:02.079Z,9.30
2019-04-30T21:51:35.289Z,9.24
2019-04-30T21:54:10.518Z,9.15
2019-04-30T21:56:43.019Z,9.10
2019-04-30T21:59:24.149Z,8.98
2019-04-30T22:01:57.817Z,8.81
2019-04-30T22:04:31.436Z,8.68
2019-04-30T22:07:04.079Z,8.48
2019-04-30T22:09:36.619Z,8.40
2019-04-30T22:12:09.551Z,8.36
2019-04-30T22:14:43.130Z,8.33
2019-04-30T22:17:15.794Z,8.24
2019-04-30T22:19:52.374Z,8.07
2019-04-30T22:22:25.239Z,7.87
2019-04-30T22:25:03.124Z,7.75
2019-04-30T22:27:35.674Z,7.67
2019-04-30T22:30:09.583Z,7.67
2019-04-30T22:32:45.775Z,7.66
2019-04-30T22:35:41.296Z,7.68
2019-04-30T22:38:29.186Z,7.60
2019-04-30T22:41:02.508Z,7.44
2019-04-30T22:43:35.281Z,7.30
2019-04-30T22:46:13.573Z,7.22
2019-04-30T22:48:47.408Z,7.30
2019-04-30T22:51:19.941Z,7.30
2019-04-30T22:53:54.342Z,7.22
2019-04-30T22:56:27.513Z,7.20
2019-04-30T22:59:02.243Z,7.16
2019-04-30T23:01:56.435Z,7.03
2019-04-30T23:04:42.346Z,7.14
2019-04-30T23:07:14.922Z,7.11
2019-04-30T23:09:49.047Z,7.11
2019-04-30T23:12:24.174Z,7.02
2019-04-30T23:14:56.639Z,6.92
2019-04-30T23:17:30.154Z,6.92
2019-04-30T23:20:04.611Z,6.97
2019-04-30T23:22:38.407Z,7.01
2019-04-30T23:25:11.934Z,6.99
2019-04-30T23:27:44.570Z,6.89
2019-04-30T23:30:17.081Z,6.71
2019-04-30T23:32:51.968Z,6.56
2019-04-30T23:35:24.534Z,6.67
2019-04-30T23:37:57.339Z,6.69
2019-04-30T23:40:48.878Z,6.72
2019-04-30T23:43:22.379Z,6.81
2019-04-30T23:45:54.879Z,6.83
2019-04-30T23:48:27.712Z,6.73
2019-04-30T23:51:00.659Z,6.71
2019-04-30T23:53:33.978Z,6.65
2019-04-30T23:56:06.830Z,6.58
2019-04-30T23:58:39.430Z,6.44
